sensor_id;sensor_type;location;lat;lon;timestamp;P1;durP1;ratioP1;P2;durP2;ratioP2
25175;SDS011;13135;55.166;61.286;2022-08-16T00:00:38;12.68;;;7.05;;
25175;SDS011;13135;55.166;61.286;2022-08-16T00:03:25;13.45;;;6.93;;
25175;SDS011;13135;55.166;61.286;2022-08-16T00:06:09;16.62;;;7.70;;
25175;SDS011;13135;55.166;61.286;2022-08-16T00:08:55;10.70;;;7.07;;
25175;SDS011;13135;55.166;61.286;2022-08-16T00:11:40;15.73;;;7.65;;
25175;SDS011;13135;55.166;61.286;2022-08-16T00:14:26;15.40;;;7.80;;
25175;SDS011;13135;55.166;61.286;2022-08-16T00:17:10;12.33;;;8.60;;
25175;SDS011;13135;55.166;61.286;2022-08-16T00:19:57;12.63;;;7.28;;
25175;SDS011;13135;55.166;61.286;2022-08-16T00:22:41;15.80;;;8.15;;
25175;SDS011;13135;55.166;61.286;2022-08-16T00:25:25;11.25;;;6.93;;
25175;SDS011;13135;55.166;61.286;2022-08-16T00:28:10;11.27;;;6.93;;
25175;SDS011;13135;55.166;61.286;2022-08-16T00:30:55;14.73;;;6.78;;
25175;SDS011;13135;55.166;61.286;2022-08-16T00:33:40;16.52;;;7.20;;
25175;SDS011;13135;55.166;61.286;2022-08-16T00:36:24;11.85;;;7.22;;
25175;SDS011;13135;55.166;61.286;2022-08-16T00:39:08;13.95;;;7.32;;
25175;SDS011;13135;55.166;61.286;2022-08-16T00:41:53;13.88;;;7.70;;
25175;SDS011;13135;55.166;61.286;2022-08-16T00:44:38;9.97;;;6.90;;
25175;SDS011;13135;55.166;61.286;2022-08-16T00:47:23;12.20;;;6.97;;
25175;SDS011;13135;55.166;61.286;2022-08-16T00:50:08;10.67;;;7.13;;
25175;SDS011;13135;55.166;61.286;2022-08-16T00:52:52;14.18;;;6.68;;
25175;SDS011;13135;55.166;61.286;2022-08-16T00:55:38;11.38;;;6.80;;
25175;SDS011;13135;55.166;61.286;2022-08-16T00:58:25;14.30;;;6.97;;
25175;SDS011;13135;55.166;61.286;2022-08-16T01:01:09;13.38;;;6.95;;
25175;SDS011;13135;55.166;61.286;2022-08-16T01:03:54;15.85;;;7.43;;
25175;SDS011;13135;55.166;61.286;2022-08-16T01:06:39;10.98;;;6.82;;
25175;SDS011;13135;55.166;61.286;2022-08-16T01:09:22;39.30;;;25.27;;
25175;SDS011;13135;55.166;61.286;2022-08-16T01:12:07;14.13;;;8.23;;
25175;SDS011;13135;55.166;61.286;2022-08-16T01:14:52;29.07;;;16.43;;
25175;SDS011;13135;55.166;61.286;2022-08-16T01:17:36;18.98;;;11.70;;
25175;SDS011;13135;55.166;61.286;2022-08-16T01:20:23;15.57;;;7.40;;
25175;SDS011;13135;55.166;61.286;2022-08-16T01:23:11;17.50;;;7.90;;
25175;SDS011;13135;55.166;61.286;2022-08-16T01:25:57;11.10;;;6.72;;
25175;SDS011;13135;55.166;61.286;2022-08-16T01:28:42;14.65;;;7.43;;
25175;SDS011;13135;55.166;61.286;2022-08-16T01:31:27;12.77;;;6.60;;
25175;SDS011;13135;55.166;61.286;2022-08-16T01:34:13;12.63;;;6.95;;
25175;SDS011;13135;55.166;61.286;2022-08-16T01:36:58;13.85;;;7.35;;
25175;SDS011;13135;55.166;61.286;2022-08-16T01:39:42;14.25;;;8.07;;
25175;SDS011;13135;55.166;61.286;2022-08-16T01:42:27;17.42;;;10.13;;
25175;SDS011;13135;55.166;61.286;2022-08-16T01:45:12;14.77;;;8.70;;
25175;SDS011;13135;55.166;61.286;2022-08-16T01:47:57;15.82;;;7.03;;
25175;SDS011;13135;55.166;61.286;2022-08-16T01:50:43;17.75;;;9.93;;
25175;SDS011;13135;55.166;61.286;2022-08-16T01:53:28;11.88;;;7.35;;
25175;SDS011;13135;55.166;61.286;2022-08-16T01:56:11;12.52;;;7.50;;
25175;SDS011;13135;55.166;61.286;2022-08-16T01:58:58;9.23;;;5.85;;
25175;SDS011;13135;55.166;61.286;2022-08-16T02:01:42;12.82;;;6.50;;
25175;SDS011;13135;55.166;61.286;2022-08-16T02:04:26;8.65;;;6.32;;
25175;SDS011;13135;55.166;61.286;2022-08-16T02:07:10;11.65;;;6.55;;
25175;SDS011;13135;55.166;61.286;2022-08-16T02:09:55;9.13;;;6.78;;
25175;SDS011;13135;55.166;61.286;2022-08-16T02:12:41;8.18;;;6.03;;
25175;SDS011;13135;55.166;61.286;2022-08-16T02:15:26;9.85;;;6.57;;
25175;SDS011;13135;55.166;61.286;2022-08-16T02:18:11;19.83;;;10.18;;
25175;SDS011;13135;55.166;61.286;2022-08-16T02:20:55;15.25;;;9.25;;
25175;SDS011;13135;55.166;61.286;2022-08-16T02:23:41;11.77;;;6.40;;
25175;SDS011;13135;55.166;61.286;2022-08-16T02:26:26;12.30;;;6.40;;
25175;SDS011;13135;55.166;61.286;2022-08-16T02:29:08;8.95;;;5.90;;
25175;SDS011;13135;55.166;61.286;2022-08-16T02:31:53;7.50;;;5.85;;
25175;SDS011;13135;55.166;61.286;2022-08-16T02:34:38;14.65;;;6.55;;
25175;SDS011;13135;55.166;61.286;2022-08-16T02:37:26;17.65;;;6.30;;
25175;SDS011;13135;55.166;61.286;2022-08-16T02:40:11;10.43;;;5.72;;
25175;SDS011;13135;55.166;61.286;2022-08-16T02:42:55;11.45;;;5.68;;
25175;SDS011;13135;55.166;61.286;2022-08-16T02:45:40;9.68;;;6.22;;
25175;SDS011;13135;55.166;61.286;2022-08-16T02:48:27;8.70;;;6.43;;
25175;SDS011;13135;55.166;61.286;2022-08-16T02:51:12;9.02;;;5.57;;
25175;SDS011;13135;55.166;61.286;2022-08-16T02:53:56;11.07;;;5.30;;
25175;SDS011;13135;55.166;61.286;2022-08-16T02:56:41;10.60;;;5.72;;
25175;SDS011;13135;55.166;61.286;2022-08-16T02:59:21;9.57;;;5.72;;
25175;SDS011;13135;55.166;61.286;2022-08-16T03:02:05;9.38;;;5.93;;
25175;SDS011;13135;55.166;61.286;2022-08-16T03:04:50;9.88;;;5.90;;
25175;SDS011;13135;55.166;61.286;2022-08-16T03:07:35;8.75;;;5.75;;
25175;SDS011;13135;55.166;61.286;2022-08-16T03:10:20;9.80;;;5.60;;
25175;SDS011;13135;55.166;61.286;2022-08-16T03:13:10;10.95;;;6.45;;
25175;SDS011;13135;55.166;61.286;2022-08-16T03:15:55;11.98;;;5.97;;
25175;SDS011;13135;55.166;61.286;2022-08-16T03:18:40;11.98;;;6.18;;
25175;SDS011;13135;55.166;61.286;2022-08-16T03:21:25;12.73;;;6.90;;
25175;SDS011;13135;55.166;61.286;2022-08-16T03:24:10;10.02;;;5.82;;
25175;SDS011;13135;55.166;61.286;2022-08-16T03:26:57;9.50;;;6.28;;
25175;SDS011;13135;55.166;61.286;2022-08-16T03:29:41;13.30;;;6.78;;
25175;SDS011;13135;55.166;61.286;2022-08-16T03:32:26;9.60;;;5.75;;
25175;SDS011;13135;55.166;61.286;2022-08-16T03:35:11;9.30;;;5.75;;
25175;SDS011;13135;55.166;61.286;2022-08-16T03:37:57;13.15;;;6.28;;
25175;SDS011;13135;55.166;61.286;2022-08-16T03:40:42;11.48;;;5.75;;
25175;SDS011;13135;55.166;61.286;2022-08-16T03:43:26;12.37;;;5.60;;
25175;SDS011;13135;55.166;61.286;2022-08-16T03:46:13;12.18;;;5.62;;
25175;SDS011;13135;55.166;61.286;2022-08-16T03:48:58;9.73;;;6.10;;
25175;SDS011;13135;55.166;61.286;2022-08-16T03:51:42;8.80;;;5.97;;
25175;SDS011;13135;55.166;61.286;2022-08-16T03:54:28;9.80;;;5.40;;
25175;SDS011;13135;55.166;61.286;2022-08-16T03:57:12;12.05;;;5.45;;
25175;SDS011;13135;55.166;61.286;2022-08-16T03:59:57;10.85;;;5.72;;
25175;SDS011;13135;55.166;61.286;2022-08-16T04:02:38;11.68;;;5.40;;
25175;SDS011;13135;55.166;61.286;2022-08-16T04:05:23;9.82;;;5.70;;
25175;SDS011;13135;55.166;61.286;2022-08-16T04:08:08;10.85;;;5.40;;
25175;SDS011;13135;55.166;61.286;2022-08-16T04:10:53;8.43;;;4.90;;
25175;SDS011;13135;55.166;61.286;2022-08-16T04:13:37;8.70;;;5.12;;
25175;SDS011;13135;55.166;61.286;2022-08-16T04:16:22;8.80;;;4.65;;
25175;SDS011;13135;55.166;61.286;2022-08-16T04:19:07;17.87;;;5.78;;
25175;SDS011;13135;55.166;61.286;2022-08-16T04:21:52;15.43;;;5.93;;
25175;SDS011;13135;55.166;61.286;2022-08-16T04:24:37;11.43;;;5.00;;
25175;SDS011;13135;55.166;61.286;2022-08-16T04:27:24;12.18;;;5.70;;
25175;SDS011;13135;55.166;61.286;2022-08-16T04:30:09;11.10;;;5.15;;
25175;SDS011;13135;55.166;61.286;2022-08-16T04:32:54;14.52;;;5.32;;
25175;SDS011;13135;55.166;61.286;2022-08-16T04:35:39;9.05;;;5.37;;
25175;SDS011;13135;55.166;61.286;2022-08-16T04:38:24;15.43;;;5.03;;
25175;SDS011;13135;55.166;61.286;2022-08-16T04:41:09;10.68;;;4.43;;
25175;SDS011;13135;55.166;61.286;2022-08-16T04:43:54;13.35;;;3.67;;
25175;SDS011;13135;55.166;61.286;2022-08-16T04:46:38;7.22;;;4.30;;
25175;SDS011;13135;55.166;61.286;2022-08-16T04:49:23;14.18;;;4.40;;
25175;SDS011;13135;55.166;61.286;2022-08-16T04:52:10;6.72;;;3.95;;
25175;SDS011;13135;55.166;61.286;2022-08-16T04:54:55;13.85;;;3.65;;
25175;SDS011;13135;55.166;61.286;2022-08-16T04:57:39;7.30;;;3.35;;
25175;SDS011;13135;55.166;61.286;2022-08-16T05:00:26;5.32;;;3.20;;
25175;SDS011;13135;55.166;61.286;2022-08-16T05:03:11;5.35;;;2.97;;
25175;SDS011;13135;55.166;61.286;2022-08-16T05:05:56;5.93;;;2.95;;
25175;SDS011;13135;55.166;61.286;2022-08-16T05:08:41;5.72;;;3.40;;
25175;SDS011;13135;55.166;61.286;2022-08-16T05:11:26;6.05;;;2.87;;
25175;SDS011;13135;55.166;61.286;2022-08-16T05:14:10;6.80;;;2.90;;
25175;SDS011;13135;55.166;61.286;2022-08-16T05:16:55;5.40;;;3.42;;
25175;SDS011;13135;55.166;61.286;2022-08-16T05:19:40;5.18;;;2.80;;
25175;SDS011;13135;55.166;61.286;2022-08-16T05:22:25;5.35;;;3.50;;
25175;SDS011;13135;55.166;61.286;2022-08-16T05:25:10;6.85;;;3.17;;
25175;SDS011;13135;55.166;61.286;2022-08-16T05:27:56;4.53;;;2.70;;
25175;SDS011;13135;55.166;61.286;2022-08-16T05:30:42;4.90;;;2.65;;
25175;SDS011;13135;55.166;61.286;2022-08-16T05:33:27;5.80;;;3.08;;
25175;SDS011;13135;55.166;61.286;2022-08-16T05:36:12;4.97;;;2.97;;
25175;SDS011;13135;55.166;61.286;2022-08-16T05:38:57;3.60;;;2.40;;
25175;SDS011;13135;55.166;61.286;2022-08-16T05:41:42;4.72;;;2.10;;
25175;SDS011;13135;55.166;61.286;2022-08-16T05:44:27;4.65;;;2.47;;
25175;SDS011;13135;55.166;61.286;2022-08-16T05:47:11;4.82;;;2.80;;
25175;SDS011;13135;55.166;61.286;2022-08-16T05:49:56;5.00;;;2.92;;
25175;SDS011;13135;55.166;61.286;2022-08-16T05:52:41;5.45;;;3.25;;
25175;SDS011;13135;55.166;61.286;2022-08-16T05:55:26;4.30;;;2.30;;
25175;SDS011;13135;55.166;61.286;2022-08-16T05:58:11;4.72;;;2.42;;
25175;SDS011;13135;55.166;61.286;2022-08-16T06:00:58;5.75;;;2.65;;
25175;SDS011;13135;55.166;61.286;2022-08-16T06:03:42;5.30;;;3.12;;
25175;SDS011;13135;55.166;61.286;2022-08-16T06:06:27;7.62;;;3.03;;
25175;SDS011;13135;55.166;61.286;2022-08-16T06:09:12;4.12;;;2.85;;
25175;SDS011;13135;55.166;61.286;2022-08-16T06:11:55;4.95;;;3.30;;
25175;SDS011;13135;55.166;61.286;2022-08-16T06:14:48;4.65;;;2.65;;
25175;SDS011;13135;55.166;61.286;2022-08-16T06:17:33;6.12;;;2.78;;
25175;SDS011;13135;55.166;61.286;2022-08-16T06:20:19;7.10;;;2.95;;
25175;SDS011;13135;55.166;61.286;2022-08-16T06:23:03;3.22;;;2.78;;
25175;SDS011;13135;55.166;61.286;2022-08-16T06:25:48;4.70;;;2.67;;
25175;SDS011;13135;55.166;61.286;2022-08-16T06:28:32;6.07;;;2.55;;
25175;SDS011;13135;55.166;61.286;2022-08-16T06:31:16;5.22;;;3.30;;
25175;SDS011;13135;55.166;61.286;2022-08-16T06:34:01;4.40;;;2.92;;
25175;SDS011;13135;55.166;61.286;2022-08-16T06:36:46;3.22;;;2.80;;
25175;SDS011;13135;55.166;61.286;2022-08-16T06:39:31;3.50;;;3.08;;
25175;SDS011;13135;55.166;61.286;2022-08-16T06:42:16;4.10;;;3.08;;
25175;SDS011;13135;55.166;61.286;2022-08-16T06:45:00;3.30;;;3.00;;
25175;SDS011;13135;55.166;61.286;2022-08-16T06:47:45;3.65;;;3.10;;
25175;SDS011;13135;55.166;61.286;2022-08-16T06:50:30;4.57;;;2.90;;
25175;SDS011;13135;55.166;61.286;2022-08-16T06:53:15;4.07;;;3.20;;
25175;SDS011;13135;55.166;61.286;2022-08-16T06:56:00;5.32;;;3.15;;
25175;SDS011;13135;55.166;61.286;2022-08-16T06:58:47;3.97;;;2.85;;
25175;SDS011;13135;55.166;61.286;2022-08-16T07:01:33;4.70;;;3.12;;
25175;SDS011;13135;55.166;61.286;2022-08-16T07:04:20;7.03;;;3.10;;
25175;SDS011;13135;55.166;61.286;2022-08-16T07:07:04;5.03;;;3.15;;
25175;SDS011;13135;55.166;61.286;2022-08-16T07:09:49;6.32;;;3.50;;
25175;SDS011;13135;55.166;61.286;2022-08-16T07:12:34;3.50;;;3.20;;
25175;SDS011;13135;55.166;61.286;2022-08-16T07:15:19;3.83;;;2.97;;
25175;SDS011;13135;55.166;61.286;2022-08-16T07:18:04;3.60;;;3.00;;
25175;SDS011;13135;55.166;61.286;2022-08-16T07:20:48;3.87;;;2.83;;
25175;SDS011;13135;55.166;61.286;2022-08-16T07:23:33;3.42;;;3.10;;
25175;SDS011;13135;55.166;61.286;2022-08-16T07:26:18;4.35;;;3.30;;
25175;SDS011;13135;55.166;61.286;2022-08-16T07:29:03;5.12;;;3.20;;
25175;SDS011;13135;55.166;61.286;2022-08-16T07:31:48;5.15;;;3.33;;
25175;SDS011;13135;55.166;61.286;2022-08-16T07:34:32;5.50;;;3.10;;
25175;SDS011;13135;55.166;61.286;2022-08-16T07:37:17;5.82;;;3.30;;
25175;SDS011;13135;55.166;61.286;2022-08-16T07:40:02;5.90;;;3.92;;
25175;SDS011;13135;55.166;61.286;2022-08-16T07:42:46;7.45;;;3.35;;
25175;SDS011;13135;55.166;61.286;2022-08-16T07:45:31;6.22;;;3.58;;
25175;SDS011;13135;55.166;61.286;2022-08-16T07:48:15;4.30;;;3.30;;
25175;SDS011;13135;55.166;61.286;2022-08-16T07:51:00;6.12;;;3.25;;
25175;SDS011;13135;55.166;61.286;2022-08-16T07:53:46;3.87;;;3.47;;
25175;SDS011;13135;55.166;61.286;2022-08-16T07:56:37;4.75;;;3.10;;
25175;SDS011;13135;55.166;61.286;2022-08-16T07:59:22;6.25;;;3.95;;
25175;SDS011;13135;55.166;61.286;2022-08-16T08:02:07;5.93;;;3.30;;
25175;SDS011;13135;55.166;61.286;2022-08-16T08:04:53;5.90;;;3.40;;
25175;SDS011;13135;55.166;61.286;2022-08-16T08:07:38;7.93;;;3.37;;
25175;SDS011;13135;55.166;61.286;2022-08-16T08:10:23;4.20;;;3.20;;
25175;SDS011;13135;55.166;61.286;2022-08-16T08:13:08;7.55;;;3.10;;
25175;SDS011;13135;55.166;61.286;2022-08-16T08:15:53;7.15;;;3.40;;
25175;SDS011;13135;55.166;61.286;2022-08-16T08:18:37;4.62;;;3.10;;
25175;SDS011;13135;55.166;61.286;2022-08-16T08:21:23;5.68;;;3.30;;
25175;SDS011;13135;55.166;61.286;2022-08-16T08:24:08;3.60;;;3.30;;
25175;SDS011;13135;55.166;61.286;2022-08-16T08:26:53;3.30;;;2.87;;
25175;SDS011;13135;55.166;61.286;2022-08-16T08:29:37;5.85;;;3.17;;
25175;SDS011;13135;55.166;61.286;2022-08-16T08:32:22;5.20;;;3.17;;
25175;SDS011;13135;55.166;61.286;2022-08-16T08:35:06;3.47;;;3.17;;
25175;SDS011;13135;55.166;61.286;2022-08-16T08:37:52;5.35;;;2.92;;
25175;SDS011;13135;55.166;61.286;2022-08-16T08:40:37;3.90;;;2.78;;
25175;SDS011;13135;55.166;61.286;2022-08-16T08:43:22;3.37;;;2.55;;
25175;SDS011;13135;55.166;61.286;2022-08-16T08:46:06;5.15;;;2.90;;
25175;SDS011;13135;55.166;61.286;2022-08-16T08:48:51;3.28;;;2.67;;
25175;SDS011;13135;55.166;61.286;2022-08-16T08:51:36;3.28;;;2.60;;
25175;SDS011;13135;55.166;61.286;2022-08-16T08:54:21;4.20;;;3.20;;
25175;SDS011;13135;55.166;61.286;2022-08-16T08:57:06;4.30;;;2.80;;
25175;SDS011;13135;55.166;61.286;2022-08-16T08:59:50;4.70;;;2.90;;
25175;SDS011;13135;55.166;61.286;2022-08-16T09:02:35;3.33;;;2.60;;
25175;SDS011;13135;55.166;61.286;2022-08-16T09:05:21;3.95;;;2.67;;
25175;SDS011;13135;55.166;61.286;2022-08-16T09:08:05;4.85;;;2.53;;
25175;SDS011;13135;55.166;61.286;2022-08-16T09:10:51;3.28;;;2.50;;
25175;SDS011;13135;55.166;61.286;2022-08-16T09:13:35;2.92;;;2.47;;
25175;SDS011;13135;55.166;61.286;2022-08-16T09:16:21;3.60;;;2.35;;
25175;SDS011;13135;55.166;61.286;2022-08-16T09:19:06;3.90;;;2.53;;
25175;SDS011;13135;55.166;61.286;2022-08-16T09:21:49;3.72;;;2.55;;
25175;SDS011;13135;55.166;61.286;2022-08-16T09:24:34;6.60;;;2.70;;
25175;SDS011;13135;55.166;61.286;2022-08-16T09:27:20;4.82;;;2.70;;
25175;SDS011;13135;55.166;61.286;2022-08-16T09:30:06;4.37;;;3.00;;
25175;SDS011;13135;55.166;61.286;2022-08-16T09:32:50;4.40;;;2.50;;
25175;SDS011;13135;55.166;61.286;2022-08-16T09:35:35;4.47;;;2.87;;
25175;SDS011;13135;55.166;61.286;2022-08-16T09:38:22;3.22;;;2.35;;
25175;SDS011;13135;55.166;61.286;2022-08-16T09:41:08;4.35;;;2.58;;
25175;SDS011;13135;55.166;61.286;2022-08-16T09:43:51;4.07;;;2.78;;
25175;SDS011;13135;55.166;61.286;2022-08-16T09:46:36;3.22;;;2.53;;
25175;SDS011;13135;55.166;61.286;2022-08-16T09:49:23;7.12;;;2.50;;
25175;SDS011;13135;55.166;61.286;2022-08-16T09:52:14;3.58;;;2.20;;
25175;SDS011;13135;55.166;61.286;2022-08-16T09:54:59;6.97;;;2.53;;
25175;SDS011;13135;55.166;61.286;2022-08-16T09:57:43;3.55;;;2.30;;
25175;SDS011;13135;55.166;61.286;2022-08-16T10:00:27;4.85;;;2.47;;
25175;SDS011;13135;55.166;61.286;2022-08-16T10:03:13;2.97;;;2.08;;
25175;SDS011;13135;55.166;61.286;2022-08-16T10:05:57;3.22;;;2.22;;
25175;SDS011;13135;55.166;61.286;2022-08-16T10:08:41;2.35;;;2.12;;
25175;SDS011;13135;55.166;61.286;2022-08-16T10:11:26;2.72;;;2.17;;
25175;SDS011;13135;55.166;61.286;2022-08-16T10:14:11;3.15;;;2.08;;
25175;SDS011;13135;55.166;61.286;2022-08-16T10:16:57;2.90;;;2.05;;
25175;SDS011;13135;55.166;61.286;2022-08-16T10:19:41;3.80;;;2.78;;
25175;SDS011;13135;55.166;61.286;2022-08-16T10:22:26;3.67;;;2.78;;
25175;SDS011;13135;55.166;61.286;2022-08-16T10:25:11;4.80;;;2.33;;
25175;SDS011;13135;55.166;61.286;2022-08-16T10:27:56;5.47;;;2.62;;
25175;SDS011;13135;55.166;61.286;2022-08-16T10:30:42;2.97;;;2.08;;
25175;SDS011;13135;55.166;61.286;2022-08-16T10:33:27;3.12;;;2.10;;
25175;SDS011;13135;55.166;61.286;2022-08-16T10:36:12;3.15;;;2.37;;
25175;SDS011;13135;55.166;61.286;2022-08-16T10:38:58;3.67;;;2.15;;
25175;SDS011;13135;55.166;61.286;2022-08-16T10:41:43;4.30;;;2.10;;
25175;SDS011;13135;55.166;61.286;2022-08-16T10:44:28;2.95;;;2.15;;
25175;SDS011;13135;55.166;61.286;2022-08-16T10:47:13;2.58;;;2.10;;
25175;SDS011;13135;55.166;61.286;2022-08-16T10:49:58;4.20;;;2.25;;
25175;SDS011;13135;55.166;61.286;2022-08-16T10:52:45;3.53;;;2.10;;
25175;SDS011;13135;55.166;61.286;2022-08-16T10:55:30;7.37;;;2.28;;
25175;SDS011;13135;55.166;61.286;2022-08-16T10:58:14;2.75;;;2.10;;
25175;SDS011;13135;55.166;61.286;2022-08-16T11:00:59;2.92;;;2.10;;
25175;SDS011;13135;55.166;61.286;2022-08-16T11:03:44;5.65;;;2.30;;
25175;SDS011;13135;55.166;61.286;2022-08-16T11:06:29;4.10;;;2.20;;
25175;SDS011;13135;55.166;61.286;2022-08-16T11:09:14;3.90;;;2.17;;
25175;SDS011;13135;55.166;61.286;2022-08-16T11:11:59;3.47;;;2.20;;
25175;SDS011;13135;55.166;61.286;2022-08-16T11:14:43;3.05;;;2.30;;
25175;SDS011;13135;55.166;61.286;2022-08-16T11:17:29;4.65;;;2.20;;
25175;SDS011;13135;55.166;61.286;2022-08-16T11:20:14;2.15;;;1.90;;
25175;SDS011;13135;55.166;61.286;2022-08-16T11:22:59;3.55;;;2.17;;
25175;SDS011;13135;55.166;61.286;2022-08-16T11:25:43;2.78;;;1.83;;
25175;SDS011;13135;55.166;61.286;2022-08-16T11:28:28;4.40;;;2.83;;
25175;SDS011;13135;55.166;61.286;2022-08-16T11:31:11;4.10;;;2.28;;
25175;SDS011;13135;55.166;61.286;2022-08-16T11:33:53;4.03;;;2.25;;
25175;SDS011;13135;55.166;61.286;2022-08-16T11:36:38;3.72;;;1.95;;
25175;SDS011;13135;55.166;61.286;2022-08-16T11:39:25;2.00;;;1.80;;
25175;SDS011;13135;55.166;61.286;2022-08-16T11:42:12;3.20;;;1.85;;
25175;SDS011;13135;55.166;61.286;2022-08-16T11:44:57;2.10;;;1.67;;
25175;SDS011;13135;55.166;61.286;2022-08-16T11:47:42;3.62;;;2.50;;
25175;SDS011;13135;55.166;61.286;2022-08-16T11:50:26;2.58;;;1.87;;
25175;SDS011;13135;55.166;61.286;2022-08-16T11:53:10;3.70;;;2.20;;
25175;SDS011;13135;55.166;61.286;2022-08-16T11:55:56;2.83;;;1.65;;
25175;SDS011;13135;55.166;61.286;2022-08-16T11:58:40;3.35;;;1.62;;
25175;SDS011;13135;55.166;61.286;2022-08-16T12:01:24;2.03;;;1.83;;
25175;SDS011;13135;55.166;61.286;2022-08-16T12:04:09;2.40;;;1.92;;
25175;SDS011;13135;55.166;61.286;2022-08-16T12:06:54;3.20;;;1.80;;
25175;SDS011;13135;55.166;61.286;2022-08-16T12:09:38;2.50;;;1.83;;
25175;SDS011;13135;55.166;61.286;2022-08-16T12:12:23;2.90;;;1.80;;
25175;SDS011;13135;55.166;61.286;2022-08-16T12:15:08;3.55;;;1.92;;
25175;SDS011;13135;55.166;61.286;2022-08-16T12:17:55;1.73;;;1.58;;
25175;SDS011;13135;55.166;61.286;2022-08-16T12:20:42;2.47;;;1.48;;
25175;SDS011;13135;55.166;61.286;2022-08-16T12:23:26;2.05;;;1.48;;
25175;SDS011;13135;55.166;61.286;2022-08-16T12:26:10;2.53;;;1.73;;
25175;SDS011;13135;55.166;61.286;2022-08-16T12:28:55;3.53;;;1.90;;
25175;SDS011;13135;55.166;61.286;2022-08-16T12:31:41;2.80;;;1.90;;
25175;SDS011;13135;55.166;61.286;2022-08-16T12:34:25;3.55;;;1.60;;
25175;SDS011;13135;55.166;61.286;2022-08-16T12:37:09;3.28;;;1.40;;
25175;SDS011;13135;55.166;61.286;2022-08-16T12:39:55;3.30;;;1.80;;
25175;SDS011;13135;55.166;61.286;2022-08-16T12:42:40;3.55;;;1.60;;
25175;SDS011;13135;55.166;61.286;2022-08-16T12:45:23;2.05;;;1.65;;
25175;SDS011;13135;55.166;61.286;2022-08-16T12:48:07;3.10;;;1.62;;
25175;SDS011;13135;55.166;61.286;2022-08-16T12:50:52;2.58;;;1.67;;
25175;SDS011;13135;55.166;61.286;2022-08-16T12:53:37;2.00;;;1.50;;
25175;SDS011;13135;55.166;61.286;2022-08-16T12:56:24;3.45;;;1.83;;
25175;SDS011;13135;55.166;61.286;2022-08-16T12:59:09;3.15;;;1.80;;
25175;SDS011;13135;55.166;61.286;2022-08-16T13:01:50;2.05;;;1.67;;
25175;SDS011;13135;55.166;61.286;2022-08-16T13:04:37;4.45;;;1.73;;
25175;SDS011;13135;55.166;61.286;2022-08-16T13:07:22;2.40;;;1.70;;
25175;SDS011;13135;55.166;61.286;2022-08-16T13:10:15;1.90;;;1.60;;
25175;SDS011;13135;55.166;61.286;2022-08-16T13:12:59;2.45;;;1.70;;
25175;SDS011;13135;55.166;61.286;2022-08-16T13:15:44;3.40;;;1.77;;
25175;SDS011;13135;55.166;61.286;2022-08-16T13:18:29;2.17;;;1.67;;
25175;SDS011;13135;55.166;61.286;2022-08-16T13:21:14;2.65;;;2.10;;
25175;SDS011;13135;55.166;61.286;2022-08-16T13:23:58;2.67;;;1.98;;
25175;SDS011;13135;55.166;61.286;2022-08-16T13:26:44;2.62;;;1.70;;
25175;SDS011;13135;55.166;61.286;2022-08-16T13:29:29;2.83;;;2.30;;
25175;SDS011;13135;55.166;61.286;2022-08-16T13:32:13;2.92;;;1.70;;
25175;SDS011;13135;55.166;61.286;2022-08-16T13:34:57;2.90;;;2.10;;
25175;SDS011;13135;55.166;61.286;2022-08-16T13:37:42;3.28;;;1.80;;
25175;SDS011;13135;55.166;61.286;2022-08-16T13:40:27;16.25;;;11.43;;
25175;SDS011;13135;55.166;61.286;2022-08-16T13:43:13;5.60;;;2.10;;
25175;SDS011;13135;55.166;61.286;2022-08-16T13:45:58;2.25;;;2.05;;
25175;SDS011;13135;55.166;61.286;2022-08-16T13:48:43;1.85;;;1.62;;
25175;SDS011;13135;55.166;61.286;2022-08-16T13:51:30;2.10;;;1.70;;
25175;SDS011;13135;55.166;61.286;2022-08-16T13:54:15;2.10;;;1.90;;
25175;SDS011;13135;55.166;61.286;2022-08-16T13:56:59;3.22;;;2.47;;
25175;SDS011;13135;55.166;61.286;2022-08-16T13:59:45;2.65;;;2.00;;
25175;SDS011;13135;55.166;61.286;2022-08-16T14:02:28;3.85;;;2.17;;
25175;SDS011;13135;55.166;61.286;2022-08-16T14:05:13;2.47;;;2.00;;
25175;SDS011;13135;55.166;61.286;2022-08-16T14:08:04;3.83;;;1.87;;
25175;SDS011;13135;55.166;61.286;2022-08-16T14:10:49;3.47;;;1.90;;
25175;SDS011;13135;55.166;61.286;2022-08-16T14:13:34;3.97;;;2.20;;
25175;SDS011;13135;55.166;61.286;2022-08-16T14:16:18;4.32;;;1.75;;
25175;SDS011;13135;55.166;61.286;2022-08-16T14:19:03;2.75;;;1.87;;
25175;SDS011;13135;55.166;61.286;2022-08-16T14:21:48;2.65;;;2.12;;
25175;SDS011;13135;55.166;61.286;2022-08-16T14:24:34;5.78;;;2.30;;
25175;SDS011;13135;55.166;61.286;2022-08-16T14:27:19;2.50;;;1.80;;
25175;SDS011;13135;55.166;61.286;2022-08-16T14:30:08;4.18;;;2.00;;
25175;SDS011;13135;55.166;61.286;2022-08-16T14:32:54;4.82;;;2.28;;
25175;SDS011;13135;55.166;61.286;2022-08-16T14:35:39;3.65;;;2.10;;
25175;SDS011;13135;55.166;61.286;2022-08-16T14:38:24;3.40;;;2.42;;
25175;SDS011;13135;55.166;61.286;2022-08-16T14:41:09;7.50;;;1.80;;
25175;SDS011;13135;55.166;61.286;2022-08-16T14:43:54;6.30;;;2.00;;
25175;SDS011;13135;55.166;61.286;2022-08-16T14:46:37;3.55;;;1.92;;
25175;SDS011;13135;55.166;61.286;2022-08-16T14:49:24;5.07;;;2.20;;
25175;SDS011;13135;55.166;61.286;2022-08-16T14:52:09;2.25;;;2.00;;
25175;SDS011;13135;55.166;61.286;2022-08-16T14:54:53;3.40;;;2.00;;
25175;SDS011;13135;55.166;61.286;2022-08-16T14:57:38;4.35;;;1.98;;
25175;SDS011;13135;55.166;61.286;2022-08-16T15:00:23;2.85;;;2.08;;
25175;SDS011;13135;55.166;61.286;2022-08-16T15:03:08;2.65;;;2.20;;
25175;SDS011;13135;55.166;61.286;2022-08-16T15:05:52;2.70;;;2.15;;
25175;SDS011;13135;55.166;61.286;2022-08-16T15:08:37;4.65;;;2.78;;
25175;SDS011;13135;55.166;61.286;2022-08-16T15:11:20;2.92;;;2.30;;
25175;SDS011;13135;55.166;61.286;2022-08-16T15:14:07;4.20;;;2.20;;
25175;SDS011;13135;55.166;61.286;2022-08-16T15:16:51;2.83;;;2.20;;
25175;SDS011;13135;55.166;61.286;2022-08-16T15:19:37;3.47;;;2.20;;
25175;SDS011;13135;55.166;61.286;2022-08-16T15:22:23;2.28;;;2.00;;
25175;SDS011;13135;55.166;61.286;2022-08-16T15:25:12;2.65;;;1.70;;
25175;SDS011;13135;55.166;61.286;2022-08-16T15:27:59;3.15;;;2.20;;
25175;SDS011;13135;55.166;61.286;2022-08-16T15:30:42;2.10;;;1.90;;
25175;SDS011;13135;55.166;61.286;2022-08-16T15:33:26;2.20;;;2.00;;
25175;SDS011;13135;55.166;61.286;2022-08-16T15:36:12;4.12;;;2.10;;
25175;SDS011;13135;55.166;61.286;2022-08-16T15:38:58;2.20;;;2.00;;
25175;SDS011;13135;55.166;61.286;2022-08-16T15:41:53;5.05;;;2.40;;
25175;SDS011;13135;55.166;61.286;2022-08-16T15:44:39;6.37;;;3.47;;
25175;SDS011;13135;55.166;61.286;2022-08-16T15:47:23;5.60;;;3.85;;
25175;SDS011;13135;55.166;61.286;2022-08-16T15:50:10;8.18;;;4.07;;
25175;SDS011;13135;55.166;61.286;2022-08-16T15:52:55;7.53;;;4.20;;
25175;SDS011;13135;55.166;61.286;2022-08-16T15:55:40;6.22;;;3.80;;
25175;SDS011;13135;55.166;61.286;2022-08-16T15:58:25;5.65;;;3.60;;
25175;SDS011;13135;55.166;61.286;2022-08-16T16:01:10;5.57;;;3.45;;
25175;SDS011;13135;55.166;61.286;2022-08-16T16:03:56;6.05;;;3.40;;
25175;SDS011;13135;55.166;61.286;2022-08-16T16:06:41;6.45;;;3.62;;
25175;SDS011;13135;55.166;61.286;2022-08-16T16:09:25;9.23;;;3.80;;
25175;SDS011;13135;55.166;61.286;2022-08-16T16:12:09;5.45;;;3.62;;
25175;SDS011;13135;55.166;61.286;2022-08-16T16:14:54;5.65;;;3.70;;